KRBG/RBG METAR and TAF weather

Enter ICAO airport designator
Station Type Date Time Source
KRBG METAR 2020/01/21 14:53 UTC NOAA

KRBG 211453Z AUTO 00000KT 10SM BKN070 OVC090 07/04 A2987 RMK AO2 RAE18 SLP116 P0001 60008 T00670044 51014


Station Type Date Time Source
KRBG Decoded METAR 2020/01/21 14:53 UTC NOAA

ROSEBURG REGIONAL AIRPORT, OR, United States (KRBG) 43-14N 123-21W 154M
Jan 21, 2020 - 09:53 AM EST / 2020.01.21 1453 UTC
Wind: Calm:0
Visibility: 10 mile(s):0
Sky conditions: overcast
Precipitation last hour: 0.01 inches
Temperature: 44.1 F (6.7 C)
Dew Point: 39.9 F (4.4 C)
Relative Humidity: 85%
Pressure (altimeter): 29.87 in. Hg (1011 hPa)
Pressure tendency: 0.04 inches (1.4 hPa) higher than three hours ago
ob: KRBG 211453Z AUTO 00000KT 10SM BKN070 OVC090 07/04 A2987 RMK AO2 RAE18 SLP116 P0001 60008 T00670044 51014
cycle: 15

Station Type Date Time Source
KRBG TAF 2020/01/21 12:42 UTC NOAA

TAF KRBG 211141Z 2112/2212 18006G15KT P6SM -RA SCT015 OVC030 WS020/18040KT
FM211600 17005KT P6SM -SHRA OVC015
FM212000 22006KT P6SM -SHRA SCT015 OVC035
FM220700 VRB03KT 6SM BR OVC025
FM221000 15001KT 6SM BR OVC015

Example: see airport list